createdAt,value
2023-07-01T00:01:37.405Z,16.80
2023-07-01T00:04:04.756Z,16.70
2023-07-01T00:06:31.612Z,16.70
2023-07-01T00:08:58.411Z,16.60
2023-07-01T00:11:25.393Z,16.60
2023-07-01T00:13:52.234Z,16.50
2023-07-01T00:16:19.277Z,16.50
2023-07-01T00:18:47.135Z,16.40
2023-07-01T00:21:14.088Z,16.40
2023-07-01T00:23:41.190Z,16.40
2023-07-01T00:26:08.053Z,16.40
2023-07-01T00:28:34.801Z,16.40
2023-07-01T00:31:01.675Z,16.40
2023-07-01T00:33:28.462Z,16.40
2023-07-01T00:35:55.729Z,16.40
2023-07-01T00:38:22.532Z,16.40
2023-07-01T00:40:49.726Z,16.40
2023-07-01T00:43:16.756Z,16.30
2023-07-01T00:45:43.496Z,16.30
2023-07-01T00:48:30.559Z,16.30
2023-07-01T00:50:57.609Z,16.30
2023-07-01T00:53:25.283Z,16.30
2023-07-01T00:55:53.298Z,16.20
2023-07-01T00:58:20.228Z,16.20
2023-07-01T01:00:47.163Z,16.20
2023-07-01T01:03:35.645Z,16.20
2023-07-01T01:06:05.295Z,16.20
2023-07-01T01:08:57.157Z,16.20
2023-07-01T01:11:26.831Z,16.20
2023-07-01T01:13:55.400Z,16.20
2023-07-01T01:16:23.475Z,16.20
2023-07-01T01:18:52.070Z,16.20
2023-07-01T01:21:20.120Z,16.20
2023-07-01T01:23:56.635Z,16.20
2023-07-01T01:26:24.600Z,16.20
2023-07-01T01:28:52.416Z,16.10
2023-07-01T01:31:21.278Z,16.10
2023-07-01T01:33:49.425Z,16.10
2023-07-01T01:36:40.746Z,16.10
2023-07-01T01:39:09.625Z,16.10
2023-07-01T01:42:07.794Z,16.10
2023-07-01T01:44:48.542Z,16.10
2023-07-01T01:47:21.598Z,16.10
2023-07-01T01:49:54.158Z,16.10
2023-07-01T01:52:22.650Z,16.10
2023-07-01T01:54:52.192Z,16.10
2023-07-01T01:57:19.531Z,16.10
2023-07-01T01:59:47.216Z,16.10
2023-07-01T02:02:14.209Z,16.10
2023-07-01T02:04:41.298Z,16.10
2023-07-01T02:07:08.149Z,16.00
2023-07-01T02:09:34.940Z,16.00
2023-07-01T02:12:01.651Z,16.00
2023-07-01T02:14:28.522Z,15.90
2023-07-01T02:16:55.668Z,15.90
2023-07-01T02:19:23.123Z,15.90
2023-07-01T02:21:50.075Z,15.90
2023-07-01T02:24:16.854Z,15.90
2023-07-01T02:26:43.934Z,15.90
2023-07-01T02:29:10.699Z,15.90
2023-07-01T02:31:37.663Z,15.80
2023-07-01T02:34:04.455Z,15.90
2023-07-01T02:36:31.430Z,15.80
2023-07-01T02:38:58.186Z,15.90
2023-07-01T02:41:24.922Z,15.80
2023-07-01T02:43:51.619Z,15.90
2023-07-01T02:46:18.374Z,15.90
2023-07-01T02:48:45.180Z,15.90
2023-07-01T02:51:11.947Z,15.90
2023-07-01T02:53:38.756Z,15.90
2023-07-01T02:56:05.550Z,15.90
2023-07-01T02:58:32.321Z,15.80
2023-07-01T03:00:59.061Z,15.80
2023-07-01T03:03:25.975Z,15.90
2023-07-01T03:05:52.776Z,15.90
2023-07-01T03:08:19.588Z,15.90
2023-07-01T03:10:46.620Z,15.90
2023-07-01T03:13:13.538Z,15.90
2023-07-01T03:15:40.255Z,15.90
2023-07-01T03:18:07.055Z,15.90
2023-07-01T03:20:33.802Z,15.90
2023-07-01T03:23:00.592Z,15.90
2023-07-01T03:25:28.092Z,15.90
2023-07-01T03:27:55.215Z,15.90
2023-07-01T03:30:29.185Z,15.90
2023-07-01T03:32:57.434Z,15.80
2023-07-01T03:35:24.332Z,15.80
2023-07-01T03:37:51.069Z,15.80
2023-07-01T03:40:17.928Z,15.90
2023-07-01T03:42:45.248Z,15.80
2023-07-01T03:45:12.509Z,15.90
2023-07-01T03:47:44.003Z,15.90
2023-07-01T03:50:12.099Z,15.90
2023-07-01T03:52:41.117Z,15.90
2023-07-01T03:55:09.983Z,15.90
2023-07-01T03:57:36.967Z,15.90
2023-07-01T04:00:09.689Z,15.90
2023-07-01T04:02:39.612Z,15.90
2023-07-01T04:05:12.270Z,15.90
2023-07-01T04:07:41.435Z,15.90
2023-07-01T04:10:09.190Z,15.90
2023-07-01T04:12:36.841Z,15.90
2023-07-01T04:15:10.865Z,15.90
2023-07-01T04:17:45.684Z,15.90
2023-07-01T04:20:14.368Z,16.00
2023-07-01T04:22:41.701Z,16.00
2023-07-01T04:25:09.560Z,16.00
2023-07-01T04:27:36.924Z,16.10
2023-07-01T04:30:04.816Z,16.10
2023-07-01T04:32:31.595Z,16.10
2023-07-01T04:34:58.437Z,16.10
2023-07-01T04:37:25.923Z,16.10
2023-07-01T04:39:54.288Z,16.10
2023-07-01T04:42:21.155Z,16.10
2023-07-01T04:44:54.953Z,16.10
2023-07-01T04:47:22.874Z,16.10
2023-07-01T04:49:53.572Z,16.10
2023-07-01T04:52:22.091Z,16.10
2023-07-01T04:54:49.018Z,16.10
2023-07-01T04:57:17.467Z,16.10
2023-07-01T04:59:44.508Z,16.10
2023-07-01T05:02:11.504Z,16.10
2023-07-01T05:04:39.249Z,16.10
2023-07-01T05:07:06.553Z,16.10
2023-07-01T05:09:33.422Z,16.10
2023-07-01T05:12:00.182Z,16.10
2023-07-01T05:14:26.888Z,16.10
2023-07-01T05:16:53.715Z,16.10
2023-07-01T05:19:20.686Z,16.00
2023-07-01T05:21:54.719Z,16.10
2023-07-01T05:24:21.920Z,16.10
2023-07-01T05:26:50.600Z,16.10
2023-07-01T05:29:21.760Z,16.10
2023-07-01T05:31:51.941Z,16.10
2023-07-01T05:34:18.752Z,16.10
2023-07-01T05:36:45.509Z,16.10
2023-07-01T05:39:12.630Z,16.10
2023-07-01T05:41:40.887Z,16.00
2023-07-01T05:44:07.656Z,15.90
2023-07-01T05:46:34.567Z,15.80
2023-07-01T05:49:01.357Z,15.70
2023-07-01T05:51:28.169Z,15.50
2023-07-01T05:53:54.875Z,15.40
2023-07-01T05:56:21.569Z,15.30
2023-07-01T05:58:48.270Z,15.20
2023-07-01T06:01:15.047Z,15.20
2023-07-01T06:06:08.461Z,15.00
2023-07-01T06:08:35.221Z,14.90
2023-07-01T06:11:01.961Z,14.90
2023-07-01T06:13:28.748Z,14.80
2023-07-01T06:15:55.457Z,14.70
2023-07-01T06:18:22.363Z,14.70
2023-07-01T06:20:49.484Z,14.70
2023-07-01T06:23:18.239Z,14.60
2023-07-01T06:25:45.004Z,14.60
2023-07-01T06:28:11.730Z,14.60
2023-07-01T06:30:38.682Z,14.60
2023-07-01T06:33:08.254Z,14.60
2023-07-01T06:35:35.507Z,14.70
2023-07-01T06:38:02.582Z,14.70
2023-07-01T06:40:29.310Z,14.80
2023-07-01T06:42:56.037Z,14.80
2023-07-01T06:45:22.820Z,14.90
2023-07-01T06:47:49.609Z,14.90
2023-07-01T06:50:16.466Z,15.00
2023-07-01T06:52:43.189Z,15.00
2023-07-01T06:55:10.004Z,15.00
2023-07-01T06:57:37.460Z,15.00
2023-07-01T07:00:04.589Z,15.00
2023-07-01T07:02:31.291Z,15.10
2023-07-01T07:04:58.150Z,15.10
2023-07-01T07:07:24.998Z,15.10
2023-07-01T07:09:52.162Z,15.20
2023-07-01T07:12:18.950Z,15.30
2023-07-01T07:14:45.648Z,15.30
2023-07-01T07:17:12.378Z,15.40
2023-07-01T07:19:39.547Z,15.50
2023-07-01T07:22:06.724Z,15.60
2023-07-01T07:24:33.618Z,15.60
2023-07-01T07:27:02.066Z,15.70
2023-07-01T07:29:30.059Z,15.80
2023-07-01T07:31:57.690Z,15.80
2023-07-01T07:34:25.139Z,15.90
2023-07-01T07:36:52.155Z,16.00
2023-07-01T07:39:19.431Z,16.20
2023-07-01T07:41:46.633Z,16.10
2023-07-01T07:44:13.447Z,16.10
2023-07-01T07:46:41.133Z,16.10
2023-07-01T07:49:07.941Z,16.10
2023-07-01T07:51:35.168Z,16.20
2023-07-01T07:54:02.025Z,16.30
2023-07-01T07:56:29.220Z,16.40
2023-07-01T07:58:55.963Z,16.50
2023-07-01T08:01:22.814Z,16.60
2023-07-01T08:03:49.814Z,16.60
2023-07-01T08:06:16.646Z,16.70
2023-07-01T08:08:43.358Z,16.80
2023-07-01T08:11:10.109Z,16.80
2023-07-01T08:13:36.854Z,16.80
2023-07-01T08:16:04.514Z,16.70
2023-07-01T08:18:32.261Z,16.60
2023-07-01T08:20:59.161Z,16.50
2023-07-01T08:23:25.916Z,16.40
2023-07-01T08:25:52.604Z,16.40
2023-07-01T08:28:19.323Z,16.40
2023-07-01T08:30:46.501Z,16.50
2023-07-01T08:33:13.539Z,16.50
2023-07-01T08:35:40.450Z,16.50
2023-07-01T08:38:07.177Z,16.50
2023-07-01T08:40:33.922Z,16.50
2023-07-01T08:43:05.001Z,16.50
2023-07-01T08:45:34.591Z,16.60
2023-07-01T08:48:01.987Z,16.80
2023-07-01T08:50:58.118Z,16.90
2023-07-01T08:53:26.271Z,17.10
2023-07-01T08:55:53.453Z,17.30
2023-07-01T08:58:20.233Z,17.20
2023-07-01T09:00:47.208Z,17.20
2023-07-01T09:03:14.742Z,17.30
2023-07-01T09:05:42.446Z,17.30
2023-07-01T09:08:09.164Z,17.40
2023-07-01T09:10:35.886Z,17.50
2023-07-01T09:13:15.729Z,17.60
2023-07-01T09:15:49.669Z,17.50
2023-07-01T09:18:27.717Z,17.60
2023-07-01T09:20:54.556Z,17.80
2023-07-01T09:23:33.260Z,17.90
2023-07-01T09:26:11.641Z,18.20
2023-07-01T09:28:39.711Z,18.30
2023-07-01T09:31:09.505Z,18.20
2023-07-01T09:33:37.523Z,18.20
2023-07-01T09:36:08.580Z,18.10
2023-07-01T09:38:53.114Z,18.00
2023-07-01T09:41:24.262Z,17.80
2023-07-01T09:43:52.626Z,17.90
2023-07-01T09:46:19.570Z,18.00
2023-07-01T09:48:56.015Z,18.00
2023-07-01T09:51:25.632Z,18.10
2023-07-01T09:53:52.828Z,18.00
2023-07-01T09:56:20.222Z,18.10
2023-07-01T09:58:48.757Z,18.20
2023-07-01T10:01:19.746Z,18.30
2023-07-01T10:03:46.905Z,18.50
2023-07-01T10:06:14.691Z,18.70
2023-07-01T10:08:44.485Z,18.70
2023-07-01T10:11:14.950Z,18.70
2023-07-01T10:13:51.156Z,18.80
2023-07-01T10:16:20.016Z,19.00
2023-07-01T10:18:47.324Z,19.20
2023-07-01T10:21:30.482Z,19.40
2023-07-01T10:23:59.527Z,19.50
2023-07-01T10:26:48.853Z,19.50
2023-07-01T10:29:31.353Z,19.50
2023-07-01T10:32:19.389Z,19.60
2023-07-01T10:34:56.055Z,19.80
2023-07-01T10:37:25.124Z,19.90
2023-07-01T10:39:54.220Z,20.00
2023-07-01T10:42:34.948Z,20.10
2023-07-01T10:45:14.213Z,20.20
2023-07-01T10:47:47.758Z,20.20
2023-07-01T10:50:16.164Z,20.20
2023-07-01T10:52:58.212Z,20.30
2023-07-01T10:55:51.285Z,20.00
2023-07-01T10:58:22.741Z,20.20
2023-07-01T11:00:51.746Z,20.40
2023-07-01T11:03:37.465Z,20.30
2023-07-01T11:06:09.942Z,20.50
2023-07-01T11:08:54.610Z,20.80
2023-07-01T11:11:22.661Z,20.90
2023-07-01T11:14:00.044Z,21.00
2023-07-01T11:16:28.037Z,21.30
2023-07-01T11:18:56.719Z,21.30
2023-07-01T11:21:28.659Z,21.50
2023-07-01T11:24:09.646Z,21.60
2023-07-01T11:26:41.518Z,21.80
2023-07-01T11:29:16.340Z,21.70
2023-07-01T11:31:43.695Z,21.60
2023-07-01T11:34:16.307Z,21.70
2023-07-01T11:36:45.687Z,21.50
2023-07-01T11:39:19.712Z,21.50
2023-07-01T11:41:54.759Z,21.50
2023-07-01T11:44:26.635Z,21.70
2023-07-01T11:46:53.929Z,21.70
2023-07-01T11:49:32.725Z,21.90
2023-07-01T11:52:00.613Z,22.00
2023-07-01T11:54:42.203Z,21.80
2023-07-01T11:57:15.894Z,21.90
2023-07-01T11:59:47.012Z,22.00
2023-07-01T12:02:14.351Z,22.00
2023-07-01T12:04:41.345Z,21.90
2023-07-01T12:07:11.948Z,21.90
2023-07-01T12:09:42.069Z,22.00
2023-07-01T12:12:11.625Z,21.70
2023-07-01T12:14:39.806Z,21.60
2023-07-01T12:17:06.788Z,21.50
2023-07-01T12:19:33.624Z,21.60
2023-07-01T12:22:01.198Z,21.70
2023-07-01T12:24:30.364Z,21.70
2023-07-01T12:27:02.106Z,21.70
2023-07-01T12:29:28.865Z,21.60
2023-07-01T12:31:56.087Z,21.40
2023-07-01T12:34:23.018Z,21.40
2023-07-01T12:36:49.868Z,21.30
2023-07-01T12:39:20.738Z,21.10
2023-07-01T12:41:54.292Z,20.90
2023-07-01T12:44:21.032Z,20.80
2023-07-01T12:46:47.943Z,20.70
2023-07-01T12:49:15.290Z,20.80
2023-07-01T12:51:44.184Z,20.70
2023-07-01T12:56:41.594Z,21.00
2023-07-01T12:59:08.882Z,21.20
2023-07-01T13:01:35.640Z,21.50
2023-07-01T13:04:04.645Z,21.70
2023-07-01T13:06:34.116Z,22.10
2023-07-01T13:09:03.685Z,22.40
2023-07-01T13:11:37.461Z,22.70
2023-07-01T13:14:12.797Z,23.30
2023-07-01T13:16:41.716Z,24.00
2023-07-01T13:19:10.543Z,24.40
2023-07-01T13:21:45.000Z,24.70
2023-07-01T13:24:14.108Z,24.80
2023-07-01T13:26:46.361Z,24.90
2023-07-01T13:29:16.036Z,24.80
2023-07-01T13:31:45.177Z,24.90
2023-07-01T13:34:12.601Z,24.50
2023-07-01T13:36:41.578Z,24.00
2023-07-01T13:39:18.118Z,23.50
2023-07-01T13:48:39.166Z,24.00
2023-07-01T13:51:06.279Z,23.80
2023-07-01T13:53:33.544Z,23.70
2023-07-01T13:56:02.265Z,23.80
2023-07-01T13:58:30.084Z,24.00
2023-07-01T14:01:47.721Z,24.10
2023-07-01T14:04:14.733Z,24.60
2023-07-01T14:06:41.472Z,24.90
2023-07-01T14:09:25.082Z,24.90
2023-07-01T14:11:52.835Z,24.40
2023-07-01T14:14:22.322Z,23.90
2023-07-01T14:16:50.483Z,23.90
2023-07-01T14:19:18.705Z,24.00
2023-07-01T14:21:54.047Z,24.30
2023-07-01T14:24:28.252Z,24.90
2023-07-01T14:26:57.062Z,25.10
2023-07-01T14:29:23.921Z,24.90
2023-07-01T14:31:52.150Z,24.00
2023-07-01T14:34:23.731Z,23.40
2023-07-01T14:36:54.266Z,23.10
2023-07-01T14:39:46.315Z,23.00
2023-07-01T14:42:16.160Z,22.90
2023-07-01T14:44:42.952Z,22.80
2023-07-01T14:47:09.909Z,22.70
2023-07-01T14:49:39.779Z,22.50
2023-07-01T14:52:07.057Z,22.30
2023-07-01T14:54:33.700Z,22.10
2023-07-01T14:57:00.389Z,22.00
2023-07-01T14:59:27.102Z,21.90
2023-07-01T15:01:58.417Z,21.70
2023-07-01T15:04:26.751Z,21.50
2023-07-01T15:06:56.817Z,21.30
2023-07-01T15:09:23.601Z,21.20
2023-07-01T15:11:50.370Z,21.20
2023-07-01T15:14:17.090Z,21.20
2023-07-01T15:16:43.829Z,21.20
2023-07-01T15:19:10.604Z,21.30
2023-07-01T15:21:37.361Z,21.40
2023-07-01T15:24:06.797Z,21.60
2023-07-01T15:26:33.568Z,21.70
2023-07-01T15:29:00.291Z,21.80
2023-07-01T15:31:27.174Z,21.80
2023-07-01T15:33:53.975Z,22.00
2023-07-01T15:36:20.744Z,22.20
2023-07-01T15:38:47.523Z,22.50
2023-07-01T15:41:14.697Z,23.10
2023-07-01T15:43:42.552Z,23.30
2023-07-01T15:46:09.873Z,24.00
2023-07-01T15:48:36.977Z,24.50
2023-07-01T15:51:03.849Z,24.70
2023-07-01T15:53:30.582Z,24.80
2023-07-01T15:55:57.710Z,24.70
2023-07-01T15:58:26.498Z,24.80
2023-07-01T16:00:53.769Z,24.70
2023-07-01T16:03:21.185Z,25.00
2023-07-01T16:05:48.773Z,25.70
2023-07-01T16:08:16.583Z,26.10
2023-07-01T16:10:45.336Z,26.90
2023-07-01T16:13:33.346Z,27.60
2023-07-01T16:16:04.053Z,28.00
2023-07-01T16:18:42.417Z,28.60
2023-07-01T16:21:09.803Z,29.00
2023-07-01T16:23:43.556Z,28.90
2023-07-01T16:26:14.052Z,29.10
2023-07-01T16:28:48.023Z,29.30
2023-07-01T16:31:17.874Z,29.40
2023-07-01T16:33:45.255Z,29.30
2023-07-01T16:36:32.620Z,29.40
2023-07-01T16:39:01.897Z,29.30
2023-07-01T16:41:31.646Z,29.40
2023-07-01T16:43:58.620Z,29.80
2023-07-01T16:46:32.055Z,29.90
2023-07-01T16:49:00.026Z,29.80
2023-07-01T16:51:27.166Z,30.00
2023-07-01T16:54:06.079Z,30.00
2023-07-01T16:56:45.748Z,30.00
2023-07-01T16:59:24.464Z,29.90
2023-07-01T17:01:51.960Z,30.10
2023-07-01T17:04:32.954Z,30.30
2023-07-01T17:07:00.330Z,29.90
2023-07-01T17:09:39.193Z,29.80
2023-07-01T17:12:07.227Z,29.30
2023-07-01T17:14:43.892Z,29.00
2023-07-01T17:17:33.418Z,28.70
2023-07-01T17:20:02.205Z,28.10
2023-07-01T17:22:29.783Z,26.80
2023-07-01T17:24:56.849Z,25.50
2023-07-01T17:27:23.814Z,24.50
2023-07-01T17:29:53.821Z,24.80
2023-07-01T17:32:21.433Z,26.10
2023-07-01T17:35:11.618Z,26.60
2023-07-01T17:37:38.416Z,26.20
2023-07-01T17:40:05.476Z,25.70
2023-07-01T17:42:32.256Z,26.00
2023-07-01T17:44:58.939Z,26.10
2023-07-01T17:47:25.693Z,25.50
2023-07-01T17:49:53.577Z,24.60
2023-07-01T17:52:23.629Z,23.30
2023-07-01T17:54:58.158Z,22.50
2023-07-01T17:57:46.382Z,21.90
2023-07-01T18:00:21.738Z,21.30
2023-07-01T18:02:48.709Z,20.70
2023-07-01T18:05:15.973Z,20.30
2023-07-01T18:07:43.597Z,20.10
2023-07-01T18:10:11.521Z,19.90
2023-07-01T18:12:39.206Z,19.70
2023-07-01T18:15:14.991Z,19.50
2023-07-01T18:17:43.638Z,19.40
2023-07-01T18:20:11.297Z,19.20
2023-07-01T18:22:38.213Z,19.30
2023-07-01T18:25:05.732Z,19.20
2023-07-01T18:27:33.811Z,19.20
2023-07-01T18:30:00.792Z,19.20
2023-07-01T18:32:27.593Z,19.10
2023-07-01T18:34:56.315Z,19.00
2023-07-01T18:37:23.406Z,18.90
2023-07-01T18:39:50.148Z,18.80
2023-07-01T18:42:16.937Z,18.80
2023-07-01T18:44:43.669Z,18.80
2023-07-01T18:47:10.380Z,18.60
2023-07-01T18:49:38.065Z,18.70
2023-07-01T18:52:05.223Z,18.70
2023-07-01T18:54:31.970Z,18.70
2023-07-01T18:56:58.657Z,18.60
2023-07-01T18:59:25.373Z,18.60
2023-07-01T19:01:52.140Z,18.60
2023-07-01T19:04:18.948Z,18.60
2023-07-01T19:06:45.700Z,18.50
2023-07-01T19:09:12.525Z,18.50
2023-07-01T19:11:39.268Z,18.50
2023-07-01T19:14:06.011Z,18.50
2023-07-01T19:16:32.826Z,18.50
2023-07-01T19:18:59.608Z,18.50
2023-07-01T19:21:26.348Z,18.50
2023-07-01T19:23:53.149Z,18.50
2023-07-01T19:26:19.937Z,18.60
2023-07-01T19:28:46.683Z,18.60
2023-07-01T19:31:13.487Z,18.60
2023-07-01T19:33:40.628Z,18.50
2023-07-01T19:36:07.374Z,18.60
2023-07-01T19:38:34.569Z,18.70
2023-07-01T19:41:01.350Z,18.60
2023-07-01T19:43:28.178Z,18.60
2023-07-01T19:45:55.005Z,18.50
2023-07-01T19:48:21.717Z,18.50
2023-07-01T19:50:48.451Z,18.50
2023-07-01T19:53:17.163Z,18.40
2023-07-01T19:55:43.881Z,18.40
2023-07-01T19:58:44.607Z,18.40
2023-07-01T20:01:11.304Z,18.30
2023-07-01T20:03:38.042Z,18.30
2023-07-01T20:06:05.059Z,18.30
2023-07-01T20:08:31.976Z,18.30
2023-07-01T20:10:58.801Z,18.30
2023-07-01T20:13:25.518Z,18.20
2023-07-01T20:15:52.518Z,18.20
2023-07-01T20:18:19.449Z,18.20
2023-07-01T20:20:46.212Z,18.10
2023-07-01T20:23:13.072Z,18.10
2023-07-01T20:25:40.437Z,18.10
2023-07-01T20:28:07.821Z,18.00
2023-07-01T20:30:34.688Z,18.00
2023-07-01T20:33:01.467Z,17.80
2023-07-01T20:35:28.265Z,18.00
2023-07-01T20:37:54.960Z,18.10
2023-07-01T20:40:24.513Z,18.10
2023-07-01T20:42:51.239Z,18.10
2023-07-01T20:45:18.196Z,18.10
2023-07-01T20:47:44.934Z,18.10
2023-07-01T20:50:12.083Z,18.10
2023-07-01T20:52:38.804Z,18.00
2023-07-01T20:55:05.771Z,18.00
2023-07-01T20:57:32.533Z,18.00
2023-07-01T20:59:59.243Z,17.90
2023-07-01T21:02:26.021Z,17.90
2023-07-01T21:04:52.801Z,17.80
2023-07-01T21:07:19.530Z,17.80
2023-07-01T21:09:46.235Z,17.80
2023-07-01T21:12:13.004Z,17.70
2023-07-01T21:14:39.751Z,17.80
2023-07-01T21:17:07.128Z,17.70
2023-07-01T21:19:33.959Z,17.70
2023-07-01T21:22:01.428Z,17.60
2023-07-01T21:24:28.175Z,17.60
2023-07-01T21:26:54.984Z,17.60
2023-07-01T21:29:22.102Z,17.60
2023-07-01T21:31:51.188Z,17.60
2023-07-01T21:34:20.249Z,17.60
2023-07-01T21:36:50.821Z,17.70
2023-07-01T21:39:22.107Z,17.70
2023-07-01T21:41:49.879Z,17.70
2023-07-01T21:44:18.130Z,17.80
2023-07-01T21:46:45.951Z,17.80
2023-07-01T21:49:12.872Z,17.80
2023-07-01T21:51:48.611Z,17.80
2023-07-01T21:54:20.793Z,17.70
2023-07-01T21:56:49.160Z,17.60
2023-07-01T21:59:15.972Z,17.50
2023-07-01T22:01:43.257Z,17.50
2023-07-01T22:04:15.083Z,17.50
2023-07-01T22:06:44.856Z,17.40
2023-07-01T22:09:12.042Z,17.40
2023-07-01T22:11:39.213Z,17.50
2023-07-01T22:14:06.970Z,17.50
2023-07-01T22:16:34.949Z,17.40
2023-07-01T22:19:01.743Z,17.40
2023-07-01T22:21:31.130Z,17.30
2023-07-01T22:23:58.922Z,17.30
2023-07-01T22:26:26.153Z,17.30
2023-07-01T22:28:52.798Z,17.30
2023-07-01T22:31:19.519Z,17.30
2023-07-01T22:33:46.352Z,17.30
2023-07-01T22:36:13.213Z,17.30
2023-07-01T22:38:39.987Z,17.30
2023-07-01T22:41:06.840Z,17.30
2023-07-01T22:43:33.584Z,17.30
2023-07-01T22:46:00.350Z,17.30
2023-07-01T22:48:27.147Z,17.30
2023-07-01T22:50:54.127Z,17.30
2023-07-01T22:53:21.434Z,17.30
2023-07-01T22:55:48.143Z,17.30
2023-07-01T22:58:14.872Z,17.30
2023-07-01T23:00:41.611Z,17.30
2023-07-01T23:03:08.478Z,17.20
2023-07-01T23:05:35.584Z,17.20
2023-07-01T23:08:02.412Z,17.20
2023-07-01T23:10:29.111Z,17.30
2023-07-01T23:12:55.879Z,17.20
2023-07-01T23:15:22.695Z,17.30
2023-07-01T23:17:49.430Z,17.20
2023-07-01T23:20:16.182Z,17.20
2023-07-01T23:22:42.949Z,17.20
2023-07-01T23:25:10.730Z,17.10
2023-07-01T23:27:44.229Z,17.10
2023-07-01T23:30:13.468Z,17.00
2023-07-01T23:32:41.886Z,17.00
2023-07-01T23:35:09.210Z,16.90
2023-07-01T23:37:36.104Z,16.80
2023-07-01T23:40:03.742Z,16.70
2023-07-01T23:42:31.148Z,16.70
2023-07-01T23:44:57.923Z,16.70
2023-07-01T23:47:26.421Z,16.70
2023-07-01T23:49:53.401Z,16.70
2023-07-01T23:52:20.255Z,16.60
2023-07-01T23:54:47.086Z,16.60
2023-07-01T23:57:13.896Z,16.50
2023-07-01T23:59:40.606Z,16.50
